Latest Weather Observations for Tamworth Airport

IDN60801

Issued at 3:02 pm EST Friday 28 August 2015 (issued every 30 minutes, with the page automatically refreshed every 10 minutes)

About weather observations | Map of weather stations | Latest weather observations for NSW | Other Formats
Station Details ID: 055325 Name: TAMWORTH AIRPORT AWS Lat: -31.07 Lon: 150.84 Height: 394.9 m
Data from the previous 72 hours. | See also: Recent months at Tamworth Airport
Date/Time
EST
Temp
°C
App
Temp
°C
Dew
Point
Rel
Hum
%
Delta-T
°C
Wind Press
QNH
hPa
Press
MSL
hPa
Rain
since 9 am
mm
Dir
 
Spd
km/h
Gust
km/h
Spd
kts
Gust
kts
28/03:00pm 14.9 11.8 3.7 47 5.2 WSW 9 11 5 6 1021.8 - -
28/02:30pm 14.7 11.4 4.4 50 4.9 W 11 17 6 9 1021.8 1022.0 0.0
28/02:00pm 15.6 10.8 4.6 48 5.2 NW 19 32 10 17 1022.0 1022.2 0.0
28/01:30pm 14.3 10.6 4.3 51 4.7 WSW 13 19 7 10 1022.3 1022.5 0.0
28/01:00pm 14.3 9.2 3.2 47 5.1 WSW 19 24 10 13 1022.8 1023.0 0.0
28/12:30pm 14.6 9.3 2.8 45 5.4 WSW 20 28 11 15 1023.0 1023.2 0.0
28/12:00pm 13.9 9.3 3.7 50 4.7 WNW 17 28 9 15 1023.5 1023.6 0.0
28/11:30am 14.7 10.2 4.4 50 4.9 WNW 17 24 9 13 1023.8 1024.0 0.0
28/11:00am 14.0 9.7 5.1 55 4.2 WNW 17 24 9 13 1024.2 1024.4 0.0
28/10:30am 12.8 8.8 5.0 59 3.7 WNW 15 24 8 13 1024.4 1024.6 0.0
28/10:00am 12.3 8.9 6.1 66 3.0 WNW 13 24 7 13 1024.4 1024.6 0.0
28/09:30am 11.6 7.6 6.7 72 2.4 WNW 17 22 9 12 1024.5 1024.7 0.0
28/09:27am 11.3 7.7 6.6 73 2.3 WNW 15 22 8 12 1024.5 1024.7 0.0
28/09:02am 11.0 7.6 7.5 79 1.7 NNW 15 20 8 11 1024.5 1024.7 0.0
28/09:00am 10.8 7.4 7.5 80 1.6 N 15 20 8 11 1024.5 1024.7 1.0
28/08:30am 9.6 6.6 7.9 89 0.8 NNW 13 17 7 9 1024.3 1024.5 1.0
28/08:23am 9.1 6.6 8.0 93 0.5 N 11 15 6 8 1024.2 1024.4 1.0
28/08:00am 8.0 6.0 6.9 93 0.5 N 7 9 4 5 1024.2 1024.4 1.0
28/07:30am 6.5 4.2 5.5 93 0.5 WNW 7 9 4 5 1023.9 1024.1 1.0
28/07:00am 4.2 1.4 3.0 92 0.5 NW 7 11 4 6 1023.6 1023.8 1.0
28/06:30am 3.3 0.3 2.1 92 0.5 NW 7 9 4 5 1023.1 1023.3 0.8
28/06:00am 2.3 -0.7 1.0 91 0.5 N 6 7 3 4 1022.8 1023.0 0.8
28/05:30am 4.5 1.9 3.3 92 0.5 N 6 6 3 3 1022.5 1022.7 0.8
28/05:14am 4.6 1.8 3.4 92 0.5 NNW 7 9 4 5 1022.4 1022.6 0.8
28/05:00am 4.8 2.3 3.6 92 0.5 N 6 9 3 5 1022.3 1022.5 0.8
28/04:30am 5.6 4.0 4.4 92 0.5 NNE 2 6 1 3 1022.0 1022.2 0.8
28/04:00am 5.5 3.1 4.3 92 0.5 N 6 7 3 4 1021.9 1022.1 0.8
28/03:30am 5.1 2.4 3.9 92 0.5 NW 7 9 4 5 1021.8 1022.0 0.8
28/03:00am 5.7 2.4 4.5 92 0.5 NW 11 13 6 7 1021.6 1021.8 0.8
28/02:30am 6.0 2.0 4.8 92 0.5 NW 15 15 8 8 1021.9 1022.1 0.8
28/02:23am 5.8 2.1 4.6 92 0.5 NW 13 15 7 8 1021.9 1022.1 0.8
28/02:00am 5.8 2.9 4.6 92 0.5 NNW 9 11 5 6 1021.9 1022.1 0.8
28/01:30am 6.8 4.1 5.6 92 0.5 N 9 11 5 6 1022.2 1022.4 0.8
28/01:01am 7.4 4.8 6.2 92 0.6 N 9 11 5 6 1022.4 1022.6 0.8
28/01:00am 7.3 4.7 6.1 92 0.6 N 9 11 5 6 1022.4 1022.6 0.8
28/12:30am 7.9 5.4 6.7 92 0.6 N 9 11 5 6 1022.5 1022.7 0.8
28/12:12am 7.3 5.0 5.9 91 0.6 N 7 9 4 5 1022.5 1022.7 0.8
28/12:00am 6.9 4.6 5.7 92 0.5 NNW 7 9 4 5 1022.5 1022.7 0.8
 
Date/Time
EST
Temp
°C
App
Temp
°C
Dew
Point
Rel
Hum
%
Delta-T
°C
Wind Press
QNH
hPa
Press
MSL
hPa
Rain
since 9 am
mm
Dir
 
Spd
km/h
Gust
km/h
Spd
kts
Gust
kts
27/11:30pm 7.2 6.2 5.8 91 0.6 CALM 0 9 0 5 1022.4 1022.6 0.8
27/11:20pm 7.1 6.2 5.9 92 0.6 CALM 0 0 0 0 1022.4 1022.6 0.8
27/11:06pm 8.0 6.5 6.8 92 0.6 SW 4 9 2 5 1022.5 1022.7 0.8
27/11:00pm 8.0 5.6 6.8 92 0.6 SW 9 13 5 7 1022.5 1022.7 0.8
27/10:34pm 7.5 6.2 6.1 91 0.6 W 2 11 1 6 1022.6 1022.8 0.8
27/10:30pm 7.0 6.0 5.6 91 0.6 CALM 0 0 0 0 1022.4 1022.6 0.8
27/10:05pm 7.4 6.5 6.0 91 0.6 CALM 0 6 0 3 1022.5 1022.7 0.8
27/10:00pm 7.3 6.0 5.9 91 0.6 NNW 2 7 1 4 1022.5 1022.7 0.8
27/09:30pm 8.4 6.6 7.2 92 0.6 WNW 6 6 3 3 1022.5 1022.7 0.6
27/09:16pm 8.0 7.2 6.6 91 0.7 CALM 0 6 0 3 1022.6 1022.8 0.6
27/09:00pm 7.6 6.7 5.9 89 0.8 CALM 0 0 0 0 1022.4 1022.6 0.6
27/08:30pm 8.3 7.6 6.8 90 0.7 CALM 0 0 0 0 1022.3 1022.5 0.6
27/08:00pm 8.6 6.7 6.9 89 0.8 NW 6 9 3 5 1021.9 1022.1 0.6
27/07:30pm 9.5 7.7 7.8 89 0.8 N 7 9 4 5 1021.7 1021.9 0.6
27/07:00pm 9.9 8.3 8.2 89 0.8 N 6 11 3 6 1021.5 1021.7 0.6
27/06:30pm 10.3 7.9 8.6 89 0.9 N 11 13 6 7 1021.2 1021.3 0.6
27/06:00pm 10.7 8.4 9.0 89 0.9 N 11 13 6 7 1021.0 1021.1 0.6
27/05:45pm 10.9 9.0 9.2 89 0.9 N 9 13 5 7 1021.0 1021.1 0.6
27/05:30pm 11.1 8.8 9.0 87 1.1 NNW 11 13 6 7 1020.9 1021.0 0.6
27/05:10pm 11.2 8.6 9.3 88 1.0 N 13 15 7 8 1020.6 1020.8 0.6
27/05:00pm 11.4 9.2 9.5 88 1.0 N 11 13 6 7 1020.6 1020.8 0.4
27/04:30pm 11.2 8.5 9.1 87 1.1 N 13 15 7 8 1020.5 1020.7 0.4
27/04:00pm 11.3 8.6 8.9 85 1.2 NNW 13 17 7 9 1020.6 1020.8 0.4
27/03:30pm 11.4 8.7 9.0 85 1.2 NNW 13 17 7 9 1020.8 1020.9 0.4
27/03:27pm 11.4 8.7 9.0 85 1.2 NNW 13 17 7 9 1020.8 1020.9 0.4
27/03:26pm 11.4 8.7 9.0 85 1.2 NNW 13 17 7 9 1020.8 1020.9 0.4
27/03:10pm 11.2 7.7 8.8 85 1.2 NW 17 20 9 11 1020.9 1021.0 0.4
27/03:06pm 11.6 8.5 9.0 84 1.3 NW 15 20 8 11 1020.8 1020.9 0.4
27/03:00pm 11.9 8.8 8.9 82 1.5 WNW 15 20 8 11 1020.8 1020.9 0.4
27/02:30pm 12.4 9.2 8.5 77 2.0 WNW 15 20 8 11 1021.0 1021.1 0.4
27/02:00pm 12.4 9.2 8.5 77 2.0 WNW 15 20 8 11 1021.1 1021.2 0.4
27/01:30pm 12.5 9.4 8.8 78 1.9 WNW 15 19 8 10 1021.2 1021.3 0.4
27/01:00pm 12.4 9.4 9.2 81 1.6 WNW 15 20 8 11 1021.6 1021.8 0.2
27/12:30pm 13.0 10.3 8.9 76 2.1 WNW 13 17 7 9 1022.2 1022.4 0.0
27/12:00pm 13.3 10.5 8.6 73 2.4 NW 13 17 7 9 1022.4 1022.6 0.0
27/11:30am 13.0 10.2 8.5 74 2.3 NW 13 17 7 9 1022.7 1022.9 0.0
27/11:00am 12.8 10.6 9.3 79 1.8 WNW 11 13 6 7 1022.8 1023.0 0.0
27/10:30am 12.7 10.8 9.0 78 1.9 WNW 9 13 5 7 1022.7 1022.9 0.0
27/10:00am 12.6 10.7 8.9 78 1.9 NNW 9 13 5 7 1022.6 1022.8 0.0
27/09:30am 12.0 10.9 8.3 78 1.9 NNW 4 9 2 5 1022.7 1022.9 0.0
27/09:00am 11.4 9.9 8.6 83 1.4 SW 6 7 3 4 1022.7 1022.9 0.0
27/08:30am 10.4 8.8 8.0 85 1.2 SE 6 9 3 5 1022.7 1022.9 0.0
27/08:00am 9.7 7.9 7.8 88 0.9 ESE 7 11 4 6 1022.8 1023.0 0.0
27/07:30am 8.9 7.2 7.5 91 0.7 ESE 6 9 3 5 1022.4 1022.6 0.0
27/07:00am 7.5 6.6 6.0 90 0.7 CALM 0 0 0 0 1022.3 1022.5 0.0
27/06:30am 7.8 5.6 6.3 90 0.7 S 7 11 4 6 1021.8 1022.0 0.0
27/06:00am 7.6 5.0 6.1 90 0.7 SSE 9 11 5 6 1021.4 1021.5 0.0
27/05:30am 7.5 4.5 6.1 91 0.6 SSE 11 13 6 7 1021.3 1021.4 0.0
27/05:00am 7.7 5.1 6.2 90 0.7 ESE 9 9 5 5 1021.3 1021.4 0.0
27/04:30am 8.0 7.2 6.5 90 0.7 CALM 0 0 0 0 1021.4 1021.5 0.0
27/04:00am 7.7 6.8 6.0 89 0.8 CALM 0 0 0 0 1021.5 1021.7 0.0
27/03:30am 8.0 7.2 6.5 90 0.7 CALM 0 0 0 0 1021.2 1021.3 0.0
27/03:00am 7.6 6.7 5.9 89 0.8 CALM 0 0 0 0 1021.4 1021.5 0.0
27/02:30am 8.6 7.9 6.9 89 0.8 CALM 0 0 0 0 1020.9 1021.0 0.0
27/02:00am 8.6 7.8 6.7 88 0.9 CALM 0 0 0 0 1021.3 1021.4 0.0
27/01:30am 8.6 7.8 6.4 86 1.0 CALM 0 0 0 0 1021.5 1021.7 0.0
27/01:00am 8.9 7.4 6.7 86 1.0 SSE 4 7 2 4 1021.5 1021.7 0.0
27/12:30am 9.5 7.2 7.3 86 1.1 ESE 9 11 5 6 1021.4 1021.5 0.0
27/12:00am 9.7 7.4 7.5 86 1.1 SSE 9 11 5 6 1022.1 1022.3 0.0
 
Date/Time
EST
Temp
°C
App
Temp
°C
Dew
Point
Rel
Hum
%
Delta-T
°C
Wind Press
QNH
hPa
Press
MSL
hPa
Rain
since 9 am
mm
Dir
 
Spd
km/h
Gust
km/h
Spd
kts
Gust
kts
26/11:30pm 9.8 7.6 7.7 87 1.0 SE 9 11 5 6 1022.2 1022.4 0.0
26/11:00pm 9.3 7.5 7.3 87 1.0 SSW 6 7 3 4 1022.4 1022.6 0.0
26/10:30pm 9.6 7.3 7.4 86 1.1 S 9 11 5 6 1022.5 1022.7 0.0
26/10:00pm 9.8 7.5 7.6 86 1.1 SSE 9 11 5 6 1022.8 1023.0 0.0
26/09:30pm 10.0 7.7 7.3 83 1.3 SSE 9 11 5 6 1023.0 1023.2 0.0
26/09:00pm 10.5 7.9 7.6 82 1.4 SE 11 13 6 7 1022.8 1023.0 0.0
26/08:30pm 11.0 9.8 8.0 82 1.5 E 4 7 2 4 1023.0 1023.2 0.0
26/08:00pm 11.0 8.9 8.2 83 1.4 ESE 9 11 5 6 1022.9 1023.1 0.0
26/07:30pm 10.7 8.5 7.9 83 1.4 ESE 9 13 5 7 1022.6 1022.8 0.0
26/07:00pm 9.9 7.2 7.2 83 1.3 SE 11 11 6 6 1022.8 1023.0 0.0
26/06:30pm 10.1 7.7 6.8 80 1.6 SSE 9 11 5 6 1022.4 1022.6 0.0
26/06:00pm 10.7 8.3 6.8 77 1.9 SE 9 11 5 6 1021.9 1022.1 0.0
26/05:30pm 12.4 10.4 7.3 71 2.5 SSE 7 9 4 5 1021.9 1022.1 0.0
26/05:00pm 13.9 11.7 7.7 66 3.1 S 9 11 5 6 1021.5 1021.7 0.0
26/04:30pm 14.8 13.0 7.8 63 3.6 SSW 7 13 4 7 1021.0 1021.1 0.0
26/04:00pm 15.0 12.8 7.8 62 3.7 W 9 15 5 8 1020.9 1021.0 0.0
26/03:30pm 14.7 12.6 8.4 66 3.2 W 9 15 5 8 1021.2 1021.3 0.0
26/03:00pm 14.7 12.0 7.5 62 3.6 W 11 17 6 9 1020.8 1020.9 0.0
26/02:30pm 15.1 12.5 7.6 61 3.8 WSW 11 15 6 8 1020.6 1020.8 0.0
26/02:00pm 15.0 12.1 8.3 64 3.4 WSW 13 20 7 11 1020.9 1021.0 0.0
26/01:30pm 14.4 11.4 7.9 65 3.3 WSW 13 22 7 12 1021.2 1021.3 0.0
26/01:00pm 14.3 11.3 7.8 65 3.3 WSW 13 20 7 11 1021.2 1021.3 0.0
26/12:30pm 14.8 11.1 8.1 64 3.4 NW 17 22 9 12 1021.6 1021.8 0.0
26/12:00pm 13.8 9.6 7.6 66 3.1 WNW 19 28 10 15 1022.2 1022.4 0.0
26/11:30am 12.7 8.9 7.4 70 2.6 WNW 17 22 9 12 1022.6 1022.8 0.0
26/11:00am 12.9 9.2 8.0 72 2.5 WNW 17 22 9 12 1022.6 1022.8 0.0
26/10:30am 12.1 8.6 7.4 73 2.3 WNW 15 19 8 10 1022.8 1023.0 0.0
26/10:00am 11.8 7.6 7.3 74 2.2 NW 19 24 10 13 1023.0 1023.2 0.0
26/09:30am 11.8 7.4 6.7 71 2.5 NNW 19 24 10 13 1022.7 1022.9 0.0
26/09:00am 11.5 6.6 6.8 73 2.3 NNW 22 26 12 14 1022.6 1022.8 0.0
26/08:30am 11.7 7.4 7.0 73 2.3 NNW 19 24 10 13 1022.8 1023.0 0.0
26/08:00am 10.8 7.1 7.9 82 1.4 NNW 17 24 9 13 1022.6 1022.8 0.0
26/07:30am 10.3 6.5 7.5 83 1.4 NW 17 20 9 11 1022.5 1022.7 0.0
26/07:00am 10.1 7.5 7.7 85 1.2 NNW 11 17 6 9 1022.2 1022.4 0.0
26/06:30am 9.7 6.7 7.5 86 1.1 NW 13 17 7 9 1021.7 1021.9 0.0
26/06:00am 10.1 7.4 7.3 83 1.4 NW 11 15 6 8 1021.5 1021.7 0.0
26/05:30am 10.3 7.2 7.4 82 1.4 NW 13 19 7 10 1021.3 1021.4 0.0
26/05:00am 10.3 6.8 7.2 81 1.5 NNW 15 19 8 10 1021.0 1021.1 0.0
26/04:30am 10.3 7.6 7.4 82 1.4 NW 11 15 6 8 1020.8 1020.9 0.0
26/04:00am 10.3 7.7 7.7 84 1.3 NW 11 15 6 8 1020.6 1020.8 0.0
26/03:30am 10.4 8.2 8.0 85 1.2 WNW 9 13 5 7 1020.6 1020.8 0.0
26/03:00am 10.4 7.9 8.0 85 1.2 NW 11 13 6 7 1020.5 1020.7 0.0
26/02:30am 10.6 8.4 8.0 84 1.3 WNW 9 11 5 6 1020.9 1021.0 0.0
26/02:00am 10.7 8.1 7.9 83 1.4 NW 11 13 6 7 1021.0 1021.1 0.0
26/01:30am 10.7 8.2 8.3 85 1.2 NW 11 15 6 8 1021.1 1021.2 0.0
26/01:00am 10.8 8.3 8.2 84 1.3 NW 11 15 6 8 1021.0 1021.1 0.0
26/12:30am 10.8 8.4 8.6 86 1.1 NNW 11 13 6 7 1021.1 1021.2 0.0
26/12:00am 11.0 8.2 8.6 85 1.2 NW 13 17 7 9 1021.2 1021.3 0.0
 
Date/Time
EST
Temp
°C
App
Temp
°C
Dew
Point
Rel
Hum
%
Delta-T
°C
Wind Press
QNH
hPa
Press
MSL
hPa
Rain
since 9 am
mm
Dir
 
Spd
km/h
Gust
km/h
Spd
kts
Gust
kts
25/11:30pm 11.0 8.6 8.8 86 1.1 NW 11 13 6 7 1021.3 1021.4 0.0
25/11:00pm 11.1 9.1 8.8 86 1.2 NW 9 13 5 7 1021.4 1021.5 0.0
25/10:30pm 11.3 9.1 9.2 87 1.1 NNW 11 13 6 7 1021.3 1021.4 0.0
25/10:00pm 11.1 9.2 9.0 87 1.1 NNW 9 13 5 7 1021.4 1021.5 0.0
25/09:30pm 11.3 8.7 9.2 87 1.1 NNW 13 17 7 9 1021.4 1021.5 0.0
25/09:00pm 11.1 9.6 9.0 87 1.1 NNW 7 11 4 6 1021.4 1021.5 0.0
25/08:30pm 10.9 8.5 8.7 86 1.1 NW 11 13 6 7 1021.3 1021.4 0.0
25/08:00pm 11.5 9.3 9.2 86 1.2 NW 11 15 6 8 1021.3 1021.4 0.0
25/07:30pm 11.6 9.0 9.2 85 1.2 NW 13 17 7 9 1021.0 1021.1 0.0
25/07:00pm 12.2 8.8 9.2 82 1.5 WNW 17 22 9 12 1020.6 1020.8 0.0
25/06:30pm 11.8 9.6 7.9 77 1.9 NW 9 15 5 8 1020.4 1020.6 0.0
25/06:00pm 12.5 8.8 8.0 74 2.3 WNW 17 20 9 11 1019.8 1020.0 0.0
25/05:30pm 13.3 9.2 7.7 69 2.8 WNW 19 26 10 14 1019.6 1019.8 0.0
25/05:00pm 14.1 8.7 7.9 66 3.1 W 26 32 14 17 1019.2 1019.3 0.0
25/04:30pm 14.0 8.3 8.4 69 2.9 W 28 35 15 19 1018.9 1019.0 0.0
25/04:00pm 14.3 9.0 8.3 67 3.1 WNW 26 33 14 18 1018.9 1019.0 0.0
25/03:30pm 16.2 10.5 8.4 60 4.0 WNW 28 37 15 20 1018.7 1018.8 0.0

Other Formats:

Comma delimited format used in spreadsheet applications
http://www.bom.gov.au/fwo/IDN60801/IDN60801.95762.axf

JavaScript Object Notation format (JSON) in row-major order
http://www.bom.gov.au/fwo/IDN60801/IDN60801.95762.json